Terminal Aerodrome Forecast
Issued by NWS

Home | Current Version | Previous Version | Text Only | Print | Product List | Glossary On
Versions: 1 2 3 4 5 6 7 8 9 10 11 12 13 14 15
000
FTUS42 KTBW 210520
TAFRSW
TAF
KRSW 210520Z 2106/2206 09005KT P6SM VCSH OVC080
     FM211400 12010KT P6SM VCSH SCT025 OVC100
     FM211800 12012KT 6SM SHRA VCTS SCT025CB OVC050
     FM220100 10007KT P6SM VCSH SCT035 OVC100=

USA.gov is the U.S. government's official web portal to all federal, state and local government web resources and services.